Time;durP1;ratioP1;P1;durP2;ratioP2;P2;SDS_P1;SDS_P2;PMS_P1;PMS_P2;Temp;Humidity;BMP_temperature;BMP_pressure;BME280_temperature;BME280_humidity;BME280_pressure;Samples;Min_cycle;Max_cycle;Signal;HPM_P1;HPM_P2
2022/06/18 00:00:52;;;;;;;2.67;1.05;;;16.60;90.10;;;;;;5102179;28;20546;-75
2022/06/18 00:03:19;;;;;;;3.30;1.33;;;16.60;90.40;;;;;;5103819;28;20025;-75
2022/06/18 00:05:48;;;;;;;6.63;1.00;;;16.60;90.60;;;;;;5104158;28;20039;-75
2022/06/18 00:08:24;;;;;;;6.40;1.20;;;16.60;90.60;;;;;;5100774;28;20024;-74
2022/06/18 00:13:39;;;;;;;8.77;1.58;;;16.60;90.60;;;;;;5105937;28;20051;-75
2022/06/18 00:13:48;;;;;;;5.85;1.00;;;16.60;90.90;;;;;;5104303;28;20081;-74
2022/06/18 00:16:21;;;;;;;6.97;1.42;;;16.60;91.50;;;;;;5102671;28;20052;-75
2022/06/18 00:18:48;;;;;;;4.57;1.23;;;16.60;91.90;;;;;;5091079;28;20027;-75
2022/06/18 00:21:20;;;;;;;6.57;1.20;;;16.60;92.20;;;;;;5102537;28;20028;-75
2022/06/18 00:23:46;;;;;;;2.13;1.00;;;16.60;92.40;;;;;;5105299;28;20063;-74
2022/06/18 00:26:13;;;;;;;3.88;0.93;;;16.60;92.50;;;;;;5104182;28;20024;-75
2022/06/18 00:28:40;;;;;;;3.45;1.00;;;16.60;92.50;;;;;;5099003;28;20730;-74
2022/06/18 00:31:07;;;;;;;4.55;1.35;;;16.60;92.60;;;;;;5104461;28;20062;-75
2022/06/18 00:33:39;;;;;;;2.90;0.95;;;16.60;92.60;;;;;;5099143;28;20136;-72
2022/06/18 00:36:11;;;;;;;4.70;1.48;;;16.60;92.80;;;;;;5104391;28;20044;-75
2022/06/18 00:38:43;;;;;;;6.00;1.15;;;16.60;92.90;;;;;;5100992;28;20056;-74
2022/06/18 00:41:25;;;;;;;10.07;2.25;;;16.60;92.90;;;;;;5107160;28;20479;-75
2022/06/18 00:44:05;;;;;;;5.88;1.70;;;16.50;92.90;;;;;;5106879;28;20031;-75
2022/06/18 00:46:55;;;;;;;8.98;1.67;;;16.60;92.90;;;;;;5100847;28;20035;-75
2022/06/18 00:49:30;;;;;;;6.15;1.73;;;16.60;92.90;;;;;;5091608;28;20035;-73
2022/06/18 00:52:29;;;;;;;4.25;1.15;;;16.60;92.90;;;;;;5102628;28;20031;-74
2022/06/18 00:55:24;;;;;;;3.63;1.23;;;16.60;92.90;;;;;;5099224;28;20522;-76
2022/06/18 00:58:19;;;;;;;5.63;1.33;;;16.60;92.90;;;;;;5102533;28;20072;-74
2022/06/18 01:00:48;;;;;;;6.80;2.13;;;16.60;93.00;;;;;;5101086;28;20031;-72
2022/06/18 01:03:31;;;;;;;4.78;1.00;;;16.60;93.00;;;;;;5105652;28;20028;-73
2022/06/18 01:06:00;;;;;;;5.28;1.33;;;16.60;93.00;;;;;;5100631;28;20044;-74
2022/06/18 01:08:30;;;;;;;2.75;0.98;;;16.60;92.80;;;;;;5103995;28;20035;-76
2022/06/18 01:11:01;;;;;;;5.32;1.33;;;16.50;92.70;;;;;;5102550;28;20039;-75
2022/06/18 01:13:34;;;;;;;1.80;0.80;;;16.60;92.70;;;;;;5103776;28;20044;-76
2022/06/18 01:16:02;;;;;;;3.00;0.95;;;16.50;92.60;;;;;;5102953;28;20032;-76
2022/06/18 01:18:29;;;;;;;2.88;0.85;;;16.60;92.60;;;;;;5104894;28;20424;-76
2022/06/18 01:21:08;;;;;;;3.92;1.23;;;16.60;92.60;;;;;;5100325;28;20040;-75
2022/06/18 01:24:24;;;;;;;6.65;1.15;;;16.60;92.50;;;;;;5103637;28;20035;-73
2022/06/18 01:26:53;;;;;;;2.42;0.70;;;16.50;92.30;;;;;;5059181;28;20189;-74
2022/06/18 01:29:20;;;;;;;5.25;0.98;;;16.50;92.20;;;;;;5058893;28;20051;-76
2022/06/18 01:31:47;;;;;;;6.18;1.20;;;16.50;92.20;;;;;;5082766;28;20059;-75
2022/06/18 01:34:15;;;;;;;2.63;1.15;;;16.50;92.10;;;;;;5099069;28;20478;-76
2022/06/18 01:36:42;;;;;;;1.75;0.70;;;16.40;92.10;;;;;;5099060;28;20179;-76
2022/06/18 01:39:14;;;;;;;1.63;0.55;;;16.50;92.10;;;;;;5101672;28;20081;-73
2022/06/18 01:41:51;;;;;;;2.90;0.90;;;16.50;92.10;;;;;;5105831;28;20474;-75
2022/06/18 01:44:47;;;;;;;3.83;1.13;;;16.50;92.10;;;;;;5100931;28;20051;-74
2022/06/18 01:47:18;;;;;;;3.10;1.00;;;16.50;92.00;;;;;;5104836;28;20545;-74
2022/06/18 01:50:11;;;;;;;3.33;1.30;;;16.50;92.00;;;;;;5105753;28;20089;-75
2022/06/18 01:52:42;;;;;;;3.13;0.95;;;16.50;92.00;;;;;;5092945;27;20499;-74
2022/06/18 01:55:21;;;;;;;1.38;0.50;;;16.50;92.10;;;;;;5099213;28;20031;-74
2022/06/18 01:57:55;;;;;;;0.90;0.40;;;16.50;92.20;;;;;;5104131;28;20032;-76
2022/06/18 02:00:25;;;;;;;1.23;0.63;;;16.50;92.10;;;;;;5103280;28;20028;-76
2022/06/18 02:02:52;;;;;;;1.85;0.40;;;16.50;92.10;;;;;;5102573;28;20032;-76
2022/06/18 02:05:21;;;;;;;2.42;0.43;;;16.50;92.10;;;;;;5097379;28;20031;-77
2022/06/18 02:07:48;;;;;;;1.17;0.47;;;16.50;92.20;;;;;;5102420;28;20031;-75
2022/06/18 02:10:22;;;;;;;3.55;0.65;;;16.50;92.20;;;;;;5101789;28;20887;-75
2022/06/18 02:12:49;;;;;;;1.08;0.38;;;16.50;92.20;;;;;;5100531;28;20039;-76
2022/06/18 02:15:24;;;;;;;1.27;0.45;;;16.50;92.20;;;;;;5106597;28;20062;-75
2022/06/18 02:17:52;;;;;;;3.90;0.28;;;16.50;92.20;;;;;;5097182;28;20027;-75
2022/06/18 02:20:25;;;;;;;2.05;0.25;;;16.50;92.30;;;;;;5099004;28;20395;-74
2022/06/18 02:22:54;;;;;;;1.15;0.40;;;16.50;92.30;;;;;;5102420;28;21003;-75
2022/06/18 02:25:24;;;;;;;1.02;0.25;;;16.50;92.40;;;;;;5100426;28;20043;-75
2022/06/18 02:27:57;;;;;;;1.92;0.30;;;16.50;92.40;;;;;;5097863;28;20071;-75
2022/06/18 02:30:26;;;;;;;1.55;0.20;;;16.50;92.30;;;;;;5095229;28;20125;-75
2022/06/18 02:32:55;;;;;;;26.58;15.05;;;16.50;92.40;;;;;;5106879;28;20039;-75
2022/06/18 02:35:22;;;;;;;21.05;13.07;;;16.50;92.50;;;;;;5102279;28;20035;-76
2022/06/18 02:37:49;;;;;;;11.63;6.70;;;16.60;92.60;;;;;;5099883;28;20027;-75
2022/06/18 02:40:22;;;;;;;13.38;4.63;;;16.60;92.70;;;;;;5100123;28;20035;-75
2022/06/18 02:42:51;;;;;;;4.43;2.92;;;16.60;92.80;;;;;;5096234;28;20027;-75
2022/06/18 02:45:21;;;;;;;5.65;1.60;;;16.60;92.90;;;;;;5103643;28;20027;-74
2022/06/18 02:47:48;;;;;;;4.03;1.52;;;16.60;92.80;;;;;;5081435;28;20040;-73
2022/06/18 02:50:18;;;;;;;1.27;1.17;;;16.60;92.70;;;;;;5100375;28;20635;-74
2022/06/18 02:52:55;;;;;;;4.85;0.75;;;16.60;92.60;;;;;;5099981;28;20050;-73
2022/06/18 02:55:34;;;;;;;1.63;0.68;;;16.60;92.50;;;;;;5105719;28;20103;-72
2022/06/18 02:58:18;;;;;;;3.03;0.98;;;16.50;92.40;;;;;;5102746;28;20035;-74
2022/06/18 03:00:53;;;;;;;2.00;0.70;;;16.50;92.40;;;;;;5098350;28;20063;-72
2022/06/18 03:03:22;;;;;;;1.63;0.47;;;16.50;92.30;;;;;;5102755;28;20038;-75
2022/06/18 03:05:52;;;;;;;6.43;0.80;;;16.50;92.30;;;;;;5099757;28;20074;-73
2022/06/18 03:08:23;;;;;;;4.97;0.93;;;16.50;92.20;;;;;;5101156;28;20560;-75
2022/06/18 03:13:39;;;;;;;2.90;1.00;;;16.50;92.10;;;;;;5100049;28;20096;-75
2022/06/18 03:16:08;;;;;;;2.67;0.75;;;16.40;92.00;;;;;;5101429;28;20066;-75
2022/06/18 03:18:37;;;;;;;6.28;1.00;;;16.50;92.00;;;;;;5099774;28;20036;-73
2022/06/18 03:21:29;;;;;;;2.33;1.00;;;16.40;92.00;;;;;;5099882;28;20032;-73
2022/06/18 03:23:56;;;;;;;5.40;1.45;;;16.40;92.00;;;;;;5100485;28;20031;-75
2022/06/18 03:26:23;;;;;;;4.03;0.80;;;16.40;91.90;;;;;;5101387;28;20030;-74
2022/06/18 03:28:49;;;;;;;2.75;1.58;;;16.40;91.90;;;;;;5104299;28;20521;-72
2022/06/18 03:31:16;;;;;;;6.55;1.15;;;16.50;91.90;;;;;;5099629;28;20027;-73
2022/06/18 03:33:42;;;;;;;3.20;1.10;;;16.40;91.90;;;;;;5104254;28;20043;-71
2022/06/18 03:36:12;;;;;;;4.85;1.10;;;16.50;92.00;;;;;;5102464;28;20036;-71
2022/06/18 03:38:39;;;;;;;5.30;1.20;;;16.50;91.90;;;;;;5099862;28;20024;-71
2022/06/18 03:41:08;;;;;;;3.72;1.40;;;16.50;91.90;;;;;;5101617;28;20055;-74
2022/06/18 03:43:34;;;;;;;7.43;1.23;;;16.50;92.00;;;;;;5098840;28;20038;-73
2022/06/18 03:46:08;;;;;;;6.30;1.73;;;16.50;92.10;;;;;;5103521;28;20341;-72
2022/06/18 03:48:47;;;;;;;9.40;1.83;;;16.50;92.20;;;;;;5099492;28;20024;-74
2022/06/18 03:51:15;;;;;;;3.97;1.75;;;16.50;92.30;;;;;;5104624;28;20032;-74
2022/06/18 03:53:42;;;;;;;3.88;1.15;;;16.50;92.30;;;;;;5098600;28;20048;-75
2022/06/18 03:56:14;;;;;;;3.90;1.63;;;16.50;92.40;;;;;;5100640;28;20024;-75
2022/06/18 03:58:42;;;;;;;14.07;3.22;;;16.50;92.40;;;;;;5096576;28;20494;-73
2022/06/18 04:01:11;;;;;;;21.17;3.53;;;16.50;92.50;;;;;;5098558;28;20498;-75
2022/06/18 04:03:37;;;;;;;21.25;3.15;;;16.40;92.50;;;;;;5100005;28;20034;-71
2022/06/18 04:06:04;;;;;;;15.27;2.90;;;16.40;92.60;;;;;;5098237;28;20110;-75
2022/06/18 04:08:31;;;;;;;19.85;8.23;;;16.40;92.60;;;;;;5104037;28;20390;-72
2022/06/18 04:10:58;;;;;;;19.50;9.73;;;16.40;92.60;;;;;;5099324;28;20428;-73
2022/06/18 04:13:24;;;;;;;30.98;22.45;;;16.40;92.80;;;;;;5096700;28;20028;-76
2022/06/18 04:15:53;;;;;;;26.95;19.27;;;16.40;92.90;;;;;;5101177;28;20425;-77
2022/06/18 04:18:19;;;;;;;16.33;10.00;;;16.50;93.00;;;;;;5097873;28;20034;-77
2022/06/18 04:20:46;;;;;;;20.02;6.70;;;16.40;93.00;;;;;;5098558;28;20078;-77
2022/06/18 04:23:15;;;;;;;11.07;4.85;;;16.40;92.90;;;;;;5106062;28;20039;-76
2022/06/18 04:25:42;;;;;;;14.18;3.35;;;16.40;92.70;;;;;;5106427;28;20124;-76
2022/06/18 04:28:13;;;;;;;7.60;2.50;;;16.40;92.60;;;;;;5105513;28;20083;-71
2022/06/18 04:30:39;;;;;;;8.20;2.88;;;16.40;92.50;;;;;;5101994;27;20027;-74
2022/06/18 04:33:06;;;;;;;10.90;3.17;;;16.40;92.50;;;;;;5108309;28;20044;-75
2022/06/18 04:35:33;;;;;;;14.15;3.50;;;16.30;92.30;;;;;;5102111;28;20078;-77
2022/06/18 04:38:01;;;;;;;8.00;2.83;;;16.30;92.30;;;;;;5103923;28;20491;-78
2022/06/18 04:40:33;;;;;;;13.90;2.80;;;16.30;92.30;;;;;;5108087;27;20437;-75
2022/06/18 04:43:05;;;;;;;7.28;2.35;;;16.30;92.20;;;;;;5103490;28;20114;-74
2022/06/18 04:45:32;;;;;;;8.80;2.42;;;16.30;92.20;;;;;;5100630;28;20024;-75
2022/06/18 04:47:59;;;;;;;12.95;2.35;;;16.30;92.20;;;;;;5103066;28;20457;-74
2022/06/18 04:50:33;;;;;;;8.70;2.35;;;16.30;92.10;;;;;;5103629;28;20024;-77
2022/06/18 04:53:00;;;;;;;7.25;2.28;;;16.30;92.10;;;;;;5102899;28;20122;-77
2022/06/18 04:55:27;;;;;;;8.30;2.78;;;16.30;92.00;;;;;;5104825;28;20139;-75
2022/06/18 04:57:53;;;;;;;6.53;2.10;;;16.30;92.00;;;;;;5101205;28;20044;-77
2022/06/18 05:00:21;;;;;;;16.48;3.15;;;16.30;92.00;;;;;;5100232;27;20470;-77
2022/06/18 05:02:47;;;;;;;13.75;3.42;;;16.30;92.00;;;;;;5104354;28;20055;-75
2022/06/18 05:05:17;;;;;;;12.50;3.22;;;16.30;92.00;;;;;;5101238;28;20032;-75
2022/06/18 05:07:44;;;;;;;15.23;3.17;;;16.30;92.00;;;;;;5102503;28;20028;-75
2022/06/18 05:10:11;;;;;;;15.38;2.85;;;16.30;92.00;;;;;;5102866;28;20494;-76
2022/06/18 05:12:38;;;;;;;9.77;2.30;;;16.30;92.00;;;;;;5103219;28;20027;-76
2022/06/18 05:15:07;;;;;;;9.70;3.00;;;16.30;92.10;;;;;;5104652;28;20036;-74
2022/06/18 05:17:36;;;;;;;21.52;11.05;;;16.30;92.20;;;;;;5105255;28;20503;-75
2022/06/18 05:20:05;;;;;;;22.00;15.02;;;16.30;92.70;;;;;;5100536;28;20491;-73
2022/06/18 05:22:31;;;;;;;21.50;11.52;;;16.30;93.10;;;;;;5094290;27;20395;-74
2022/06/18 05:24:58;;;;;;;22.73;8.05;;;16.30;93.20;;;;;;5098208;27;20035;-75
2022/06/18 05:27:33;;;;;;;15.43;5.95;;;16.30;93.20;;;;;;5104377;28;20031;-77
2022/06/18 05:30:01;;;;;;;12.52;5.35;;;16.30;93.10;;;;;;5103540;28;20027;-75
2022/06/18 05:32:27;;;;;;;14.02;4.20;;;16.30;93.00;;;;;;5105821;28;20383;-76
2022/06/18 05:34:54;;;;;;;16.85;4.10;;;16.20;92.90;;;;;;5102590;28;20571;-73
2022/06/18 05:37:24;;;;;;;23.58;4.88;;;16.20;92.90;;;;;;5100607;28;20425;-77
2022/06/18 05:39:50;;;;;;;14.80;4.55;;;16.20;92.90;;;;;;5085283;28;20452;-73
2022/06/18 05:42:17;;;;;;;20.15;4.38;;;16.20;92.90;;;;;;5104164;28;20085;-78
2022/06/18 05:44:44;;;;;;;13.80;3.42;;;16.20;92.80;;;;;;5101987;28;20019;-77
2022/06/18 05:47:15;;;;;;;21.48;5.53;;;16.10;92.70;;;;;;5105073;27;20111;-75
2022/06/18 05:49:42;;;;;;;49.63;30.73;;;16.10;92.70;;;;;;5103883;28;20034;-78
2022/06/18 05:52:09;;;;;;;42.95;25.20;;;16.10;92.70;;;;;;5101920;28;20028;-74
2022/06/18 05:54:36;;;;;;;30.90;14.82;;;16.10;92.90;;;;;;5105086;27;20134;-78
2022/06/18 05:57:03;;;;;;;25.85;9.82;;;16.20;93.00;;;;;;5098165;27;20028;-76
2022/06/18 05:59:30;;;;;;;29.05;8.98;;;16.10;93.00;;;;;;5096908;27;20071;-76
2022/06/18 06:01:56;;;;;;;20.65;6.40;;;16.10;93.00;;;;;;5096579;27;20107;-77
2022/06/18 06:04:24;;;;;;;21.25;6.47;;;16.10;93.00;;;;;;5098323;28;20038;-78
2022/06/18 06:06:51;;;;;;;19.60;4.47;;;16.10;93.00;;;;;;5096726;27;20032;-78
2022/06/18 06:12:09;;;;;;;19.85;4.07;;;16.10;93.00;;;;;;5096617;27;20068;-76
2022/06/18 06:14:37;;;;;;;15.85;4.18;;;16.20;92.90;;;;;;5096013;28;20078;-75
2022/06/18 06:17:04;;;;;;;19.23;4.35;;;16.10;92.90;;;;;;5100090;27;20566;-77
2022/06/18 06:19:31;;;;;;;17.17;4.15;;;16.10;92.80;;;;;;5094576;28;20054;-76
2022/06/18 06:21:58;;;;;;;14.52;4.70;;;16.20;92.80;;;;;;5097998;28;20032;-76
2022/06/18 06:24:24;;;;;;;25.50;4.85;;;16.20;92.80;;;;;;5101199;28;20055;-77
2022/06/18 06:26:51;;;;;;;19.48;4.57;;;16.20;92.80;;;;;;5097422;27;20027;-76
2022/06/18 06:29:17;;;;;;;18.23;6.05;;;16.20;92.70;;;;;;5100549;28;20015;-77
2022/06/18 06:31:44;;;;;;;17.95;4.15;;;16.20;92.70;;;;;;5103350;28;20044;-75
2022/06/18 06:34:10;;;;;;;19.48;3.95;;;16.20;92.60;;;;;;5103728;27;20082;-75
2022/06/18 06:36:37;;;;;;;28.80;4.60;;;16.20;92.50;;;;;;5100776;28;20115;-77
2022/06/18 06:39:03;;;;;;;18.15;5.82;;;16.20;92.40;;;;;;5103254;28;20443;-76
2022/06/18 06:41:32;;;;;;;25.48;11.98;;;16.20;92.20;;;;;;5102248;28;20084;-77
2022/06/18 06:43:58;;;;;;;41.75;18.58;;;16.20;92.20;;;;;;5100941;28;20107;-73
2022/06/18 06:46:25;;;;;;;34.22;14.05;;;16.20;92.30;;;;;;5101974;28;20024;-75
2022/06/18 06:48:51;;;;;;;21.90;8.85;;;16.30;92.40;;;;;;5099468;28;20505;-75
2022/06/18 06:51:27;;;;;;;23.90;7.20;;;16.30;92.30;;;;;;5101704;28;20020;-75
2022/06/18 06:53:54;;;;;;;16.65;4.60;;;16.30;92.20;;;;;;5097931;28;20044;-75
2022/06/18 06:59:08;;;;;;;20.15;4.82;;;16.30;92.00;;;;;;5100335;28;20078;-75
2022/06/18 07:01:35;;;;;;;14.98;4.07;;;16.30;91.80;;;;;;5103580;28;20031;-77
2022/06/18 07:04:07;;;;;;;17.17;2.83;;;16.30;91.70;;;;;;5080024;28;20611;-74
2022/06/18 07:06:37;;;;;;;18.50;7.80;;;16.20;91.40;;;;;;5100000;28;20063;-78
2022/06/18 07:09:04;;;;;;;23.38;12.27;;;16.20;91.20;;;;;;5103190;28;20064;-76
2022/06/18 07:11:33;;;;;;;12.90;8.38;;;16.20;91.10;;;;;;5103923;28;20082;-73
2022/06/18 07:14:00;;;;;;;17.88;5.55;;;16.20;91.00;;;;;;5099083;28;20047;-74
2022/06/18 07:16:27;;;;;;;19.85;4.28;;;16.20;90.90;;;;;;5089858;28;20024;-71
2022/06/18 07:18:53;;;;;;;22.30;4.43;;;16.20;90.90;;;;;;5101209;27;20032;-74
2022/06/18 07:21:21;;;;;;;11.80;3.92;;;16.20;90.90;;;;;;5100582;27;20028;-68
2022/06/18 07:23:49;;;;;;;13.50;3.13;;;16.20;90.90;;;;;;5098257;28;20031;-75
2022/06/18 07:26:19;;;;;;;13.20;3.22;;;16.20;90.90;;;;;;5101922;28;20398;-72
2022/06/18 07:28:46;;;;;;;10.07;3.40;;;16.20;90.90;;;;;;5097140;28;20058;-70
2022/06/18 07:31:27;;;;;;;14.68;2.83;;;16.20;90.90;;;;;;5101125;28;20051;-68
2022/06/18 07:33:54;;;;;;;16.77;4.07;;;16.20;90.90;;;;;;5102033;28;20054;-69
2022/06/18 07:36:21;;;;;;;14.27;4.00;;;16.20;90.90;;;;;;5100033;28;20073;-77
2022/06/18 07:38:47;;;;;;;15.32;4.07;;;16.20;90.90;;;;;;5105784;28;20432;-73
2022/06/18 07:41:18;;;;;;;22.75;8.50;;;16.20;90.90;;;;;;5101950;28;20039;-76
2022/06/18 07:43:52;;;;;;;18.75;6.43;;;16.20;91.00;;;;;;5080502;28;20040;-76
2022/06/18 07:46:19;;;;;;;21.23;5.33;;;16.20;91.00;;;;;;5100744;28;20444;-73
2022/06/18 07:48:46;;;;;;;16.02;3.95;;;16.20;90.90;;;;;;5102373;28;20570;-77
2022/06/18 07:51:12;;;;;;;18.02;4.80;;;16.20;90.90;;;;;;5100625;28;20107;-77
2022/06/18 07:53:39;;;;;;;14.50;3.63;;;16.20;90.90;;;;;;5101629;28;20504;-75
2022/06/18 07:56:07;;;;;;;22.60;4.75;;;16.30;90.80;;;;;;5106187;27;20028;-72
2022/06/18 07:58:35;;;;;;;25.02;12.85;;;16.30;90.70;;;;;;5106498;28;20039;-77
2022/06/18 08:01:01;;;;;;;22.92;10.38;;;16.30;90.70;;;;;;5105839;28;20491;-76
2022/06/18 08:03:28;;;;;;;24.90;8.00;;;16.40;90.80;;;;;;5103863;28;20051;-76
2022/06/18 08:05:55;;;;;;;17.40;6.53;;;16.40;90.70;;;;;;5085065;28;20122;-74
2022/06/18 08:08:22;;;;;;;10.90;4.10;;;16.40;90.60;;;;;;5105582;28;20355;-76
2022/06/18 08:10:51;;;;;;;14.07;3.83;;;16.40;90.50;;;;;;5109400;28;20366;-76
2022/06/18 08:13:18;;;;;;;10.63;3.15;;;16.40;90.40;;;;;;5105023;28;20048;-77
2022/06/18 08:15:45;;;;;;;10.88;3.53;;;16.40;90.30;;;;;;5101154;27;20039;-74
2022/06/18 08:18:12;;;;;;;13.38;3.10;;;16.40;90.20;;;;;;5098327;27;20379;-74
2022/06/18 08:20:39;;;;;;;13.88;2.70;;;16.40;90.10;;;;;;5102368;28;20040;-74
2022/06/18 08:23:06;;;;;;;16.67;3.22;;;16.40;90.10;;;;;;5103833;27;20446;-74
2022/06/18 08:25:35;;;;;;;13.48;3.35;;;16.40;90.00;;;;;;5103001;28;20043;-76
2022/06/18 08:28:05;;;;;;;14.77;6.38;;;16.50;90.00;;;;;;5104012;28;20028;-73
2022/06/18 08:30:32;;;;;;;15.73;5.22;;;16.50;89.90;;;;;;5101297;28;20019;-74
2022/06/18 08:32:58;;;;;;;16.65;4.93;;;16.50;89.60;;;;;;5105192;28;21844;-77
2022/06/18 08:35:25;;;;;;;13.68;3.40;;;16.50;89.40;;;;;;5106588;28;20522;-73
2022/06/18 08:37:53;;;;;;;13.85;3.40;;;16.50;89.10;;;;;;5106131;27;20027;-76
2022/06/18 08:40:36;;;;;;;12.35;3.72;;;16.50;88.70;;;;;;5102777;28;20043;-78
2022/06/18 08:43:21;;;;;;;13.68;2.90;;;16.60;88.50;;;;;;5104099;28;20028;-79
2022/06/18 08:45:54;;;;;;;10.15;3.00;;;16.60;88.00;;;;;;5100771;28;20047;-80
2022/06/18 08:48:39;;;;;;;11.02;3.33;;;16.60;87.70;;;;;;5104219;27;20027;-73
2022/06/18 08:51:21;;;;;;;15.60;2.55;;;16.70;87.20;;;;;;5104653;28;20127;-77
2022/06/18 08:54:13;;;;;;;11.40;3.22;;;16.70;86.90;;;;;;5101391;28;20105;-71
2022/06/18 08:56:48;;;;;;;16.63;2.88;;;16.70;86.40;;;;;;5105665;27;20058;-73
2022/06/18 08:59:51;;;;;;;22.20;4.70;;;16.80;86.00;;;;;;5101166;27;20573;-76
2022/06/18 09:03:07;;;;;;;23.63;4.13;;;16.80;86.10;;;;;;5108396;27;20166;-74
2022/06/18 09:05:46;;;;;;;13.40;3.90;;;16.90;86.20;;;;;;5026235;28;20374;-78
2022/06/18 09:08:36;;;;;;;18.17;3.63;;;16.90;86.10;;;;;;5025397;28;20076;-78
2022/06/18 09:11:21;;;;;;;14.80;2.60;;;17.00;86.00;;;;;;5084507;28;20039;-81
2022/06/18 09:13:50;;;;;;;13.55;3.00;;;17.00;85.50;;;;;;5101780;28;20071;-74
2022/06/18 09:16:22;;;;;;;11.77;2.30;;;17.10;85.10;;;;;;5099956;28;20069;-80
2022/06/18 09:18:59;;;;;;;11.75;2.78;;;17.20;84.90;;;;;;5104119;28;20027;-74
2022/06/18 09:21:42;;;;;;;15.30;3.08;;;17.20;84.50;;;;;;5101911;28;20024;-82
2022/06/18 09:24:12;;;;;;;11.80;2.58;;;17.30;84.80;;;;;;5100110;28;20381;-78
2022/06/18 09:26:43;;;;;;;11.02;2.50;;;17.30;84.30;;;;;;5102894;28;20032;-77
2022/06/18 09:29:22;;;;;;;15.23;2.17;;;17.30;83.50;;;;;;5100847;28;20024;-73
2022/06/18 09:31:55;;;;;;;11.40;3.40;;;17.30;83.30;;;;;;5105668;28;20024;-71
2022/06/18 09:34:56;;;;;;;11.90;2.50;;;17.30;83.00;;;;;;5102307;28;20063;-73
2022/06/18 09:37:32;;;;;;;9.05;2.70;;;17.30;82.70;;;;;;5082537;28;20067;-73
2022/06/18 09:40:00;;;;;;;12.50;2.80;;;17.30;82.00;;;;;;5101085;28;20029;-71
2022/06/18 09:42:39;;;;;;;8.73;2.33;;;17.40;82.30;;;;;;5102294;28;20027;-74
2022/06/18 09:45:18;;;;;;;9.65;2.00;;;17.40;82.40;;;;;;5103811;28;20143;-72
2022/06/18 09:47:47;;;;;;;11.38;2.03;;;17.50;82.40;;;;;;5101956;28;20039;-71
2022/06/18 09:50:36;;;;;;;12.05;2.55;;;17.60;82.20;;;;;;5103750;28;20011;-76
2022/06/18 09:53:27;;;;;;;11.65;2.22;;;17.70;82.00;;;;;;5105278;27;20051;-75
2022/06/18 09:56:03;;;;;;;10.80;2.67;;;17.70;81.20;;;;;;5101142;28;20035;-76
2022/06/18 09:58:49;;;;;;;4.45;1.90;;;17.80;80.90;;;;;;5096581;28;20031;-73
2022/06/18 10:01:23;;;;;;;9.23;1.98;;;17.80;80.30;;;;;;5102775;28;20073;-73
2022/06/18 10:06:53;;;;;;;8.43;2.13;;;17.80;78.90;;;;;;5106150;28;20127;-73
2022/06/18 10:09:44;;;;;;;7.72;2.35;;;17.80;78.50;;;;;;5099431;28;20028;-72
2022/06/18 10:12:19;;;;;;;7.95;2.25;;;17.90;78.30;;;;;;5091378;28;20383;-72
2022/06/18 10:14:49;;;;;;;11.07;1.83;;;18.00;78.50;;;;;;5104707;28;20035;-73
2022/06/18 10:17:39;;;;;;;4.22;1.88;;;18.00;78.70;;;;;;5103442;28;20545;-74
2022/06/18 10:20:34;;;;;;;10.13;3.55;;;18.10;78.70;;;;;;5100809;28;20078;-75
2022/06/18 10:23:06;;;;;;;13.82;2.63;;;18.20;78.50;;;;;;5102270;28;20067;-73
2022/06/18 10:25:58;;;;;;;17.63;3.88;;;18.20;78.60;;;;;;5100438;28;20107;-73
2022/06/18 10:28:37;;;;;;;20.52;3.90;;;18.30;78.70;;;;;;5101459;28;20114;-72
2022/06/18 10:31:27;;;;;;;8.82;2.35;;;18.30;79.60;;;;;;5101199;28;20679;-71
2022/06/18 10:34:17;;;;;;;9.38;3.20;;;18.40;79.80;;;;;;5099849;28;20048;-73
2022/06/18 10:36:53;;;;;;;13.50;2.10;;;18.40;79.60;;;;;;5103637;28;20024;-74
2022/06/18 10:39:51;;;;;;;9.68;2.30;;;18.40;78.90;;;;;;5099195;28;20476;-77
2022/06/18 10:42:30;;;;;;;14.77;2.63;;;18.40;78.00;;;;;;5099162;28;20028;-72
2022/06/18 10:45:12;;;;;;;8.07;2.00;;;18.40;77.30;;;;;;5102000;28;20507;-74
2022/06/18 10:47:42;;;;;;;12.15;5.10;;;18.40;76.70;;;;;;5101214;28;20490;-73
2022/06/18 10:50:17;;;;;;;11.38;2.20;;;18.40;76.70;;;;;;5101275;28;20039;-75
2022/06/18 10:52:44;;;;;;;12.75;2.85;;;18.40;76.60;;;;;;5099623;28;20047;-75
2022/06/18 10:55:17;;;;;;;16.15;5.22;;;18.50;76.50;;;;;;5101579;28;20607;-78
2022/06/18 10:57:44;;;;;;;10.57;4.97;;;18.50;76.60;;;;;;5105663;28;20028;-73
2022/06/18 11:00:24;;;;;;;10.95;3.75;;;18.50;76.30;;;;;;5102861;28;20110;-72
2022/06/18 11:02:58;;;;;;;12.88;2.80;;;18.50;75.90;;;;;;5098904;28;20067;-74
2022/06/18 11:05:35;;;;;;;16.17;4.18;;;18.50;75.40;;;;;;5098927;28;20043;-74
2022/06/18 11:08:05;;;;;;;10.13;4.35;;;18.50;75.40;;;;;;5098893;28;20387;-73
2022/06/18 11:10:38;;;;;;;12.60;3.20;;;18.50;75.10;;;;;;5102915;28;20380;-75
2022/06/18 11:13:18;;;;;;;15.38;3.63;;;18.60;74.70;;;;;;5101792;28;20050;-73
2022/06/18 11:15:44;;;;;;;10.68;3.05;;;18.60;74.80;;;;;;5099070;28;20089;-77
2022/06/18 11:18:29;;;;;;;10.15;2.70;;;18.60;74.40;;;;;;5101935;28;20467;-73
2022/06/18 11:21:04;;;;;;;16.90;3.65;;;18.70;74.60;;;;;;5102910;27;20051;-72
2022/06/18 11:23:44;;;;;;;16.50;2.33;;;18.70;75.80;;;;;;5100839;28;20043;-74
2022/06/18 11:26:22;;;;;;;14.95;3.65;;;18.80;76.60;;;;;;5100667;28;20031;-73
2022/06/18 11:28:52;;;;;;;7.32;2.63;;;18.80;77.90;;;;;;5102127;28;20039;-76
2022/06/18 11:31:29;;;;;;;13.90;3.00;;;18.80;78.50;;;;;;5108571;28;20042;-74
2022/06/18 11:34:07;;;;;;;11.82;3.08;;;18.80;78.20;;;;;;5106148;28;20039;-73
2022/06/18 11:37:00;;;;;;;10.48;2.20;;;18.80;77.40;;;;;;5110131;28;20028;-71
2022/06/18 11:39:40;;;;;;;10.48;3.28;;;18.80;76.40;;;;;;5110624;28;20502;-73
2022/06/18 11:42:26;;;;;;;14.27;2.15;;;18.90;75.70;;;;;;5105810;28;20046;-73
2022/06/18 11:45:11;;;;;;;7.82;2.53;;;18.90;75.50;;;;;;5108482;28;20077;-75
2022/06/18 11:47:49;;;;;;;10.75;3.60;;;18.90;74.70;;;;;;5084780;28;20032;-73
2022/06/18 11:50:48;;;;;;;8.80;2.97;;;19.00;74.80;;;;;;5109259;28;20040;-74
2022/06/18 11:53:22;;;;;;;15.60;3.88;;;19.00;75.20;;;;;;5098753;28;20050;-76
2022/06/18 11:55:53;;;;;;;7.85;2.67;;;19.00;74.70;;;;;;5102531;28;20094;-75
2022/06/18 11:58:33;;;;;;;10.00;2.60;;;19.00;74.00;;;;;;5106596;28;20035;-76
2022/06/18 12:01:37;;;;;;;11.32;2.22;;;18.90;74.00;;;;;;5108971;28;20031;-75
2022/06/18 12:04:40;;;;;;;6.88;2.85;;;18.90;74.30;;;;;;5110430;28;20032;-75
2022/06/18 12:07:06;;;;;;;14.73;3.17;;;19.00;74.80;;;;;;5109260;28;20028;-73
2022/06/18 12:09:33;;;;;;;8.77;2.13;;;19.00;74.70;;;;;;5104100;28;20387;-80
2022/06/18 12:12:15;;;;;;;6.95;2.03;;;19.00;74.50;;;;;;5108795;27;20024;-74
2022/06/18 12:15:00;;;;;;;7.43;2.70;;;19.10;74.20;;;;;;5107076;28;20042;-76
2022/06/18 12:17:44;;;;;;;11.15;2.45;;;19.10;73.80;;;;;;5103372;28;20084;-78
2022/06/18 12:20:19;;;;;;;5.25;2.20;;;19.10;73.10;;;;;;5109164;28;20043;-76
2022/06/18 12:22:46;;;;;;;26.85;11.38;;;19.10;72.60;;;;;;5108876;27;20042;-77
2022/06/18 12:25:31;;;;;;;18.45;8.48;;;19.20;72.90;;;;;;5106258;27;20055;-77
2022/06/18 12:28:06;;;;;;;8.40;5.10;;;19.20;73.20;;;;;;5107904;28;20486;-75
2022/06/18 12:31:04;;;;;;;9.40;3.25;;;19.30;72.80;;;;;;5108741;28;20035;-70
2022/06/18 12:33:47;;;;;;;6.78;3.10;;;19.30;72.50;;;;;;5105735;27;20059;-72
2022/06/18 12:36:41;;;;;;;8.75;3.25;;;19.30;71.50;;;;;;5106589;27;20623;-71
2022/06/18 12:39:26;;;;;;;13.20;3.03;;;19.30;71.30;;;;;;5108668;27;20046;-76
2022/06/18 12:42:08;;;;;;;10.13;3.10;;;19.30;71.60;;;;;;5105049;28;20125;-72
2022/06/18 12:45:02;;;;;;;9.60;2.88;;;19.30;71.70;;;;;;5102804;28;20127;-74
2022/06/18 12:47:43;;;;;;;10.63;5.18;;;19.30;71.90;;;;;;5104682;28;20191;-75
2022/06/18 12:50:22;;;;;;;15.95;3.83;;;19.40;72.30;;;;;;5102134;28;20031;-73
2022/06/18 12:53:11;;;;;;;11.13;3.40;;;19.30;72.40;;;;;;5104047;28;20035;-76
2022/06/18 12:56:03;;;;;;;8.88;2.97;;;19.40;72.70;;;;;;5106071;28;20059;-75
2022/06/18 12:58:48;;;;;;;8.80;2.45;;;19.30;72.40;;;;;;5104957;28;20097;-74
2022/06/18 13:01:44;;;;;;;16.75;2.97;;;19.40;71.80;;;;;;5102748;28;20387;-73
2022/06/18 13:04:58;;;;;;;15.63;3.67;;;19.40;71.80;;;;;;5102503;28;20024;-75
2022/06/18 13:07:40;;;;;;;12.25;2.75;;;19.40;71.90;;;;;;5095564;28;20130;-73
2022/06/18 13:10:34;;;;;;;23.80;5.47;;;19.30;72.20;;;;;;5104178;28;20364;-76
2022/06/18 13:13:39;;;;;;;20.00;5.03;;;19.40;72.60;;;;;;5103618;28;20036;-75
2022/06/18 13:16:20;;;;;;;7.28;3.22;;;19.40;72.80;;;;;;5085545;28;20044;-74
2022/06/18 13:19:36;;;;;;;20.08;5.43;;;19.40;72.80;;;;;;5102977;28;20032;-76
2022/06/18 13:22:05;;;;;;;15.13;2.97;;;19.40;72.70;;;;;;5024360;28;20050;-73
2022/06/18 13:30:37;;;;;;;16.23;5.90;;;19.30;73.40;;;;;;5101806;28;20160;-75
2022/06/18 13:33:14;;;;;;;9.70;3.42;;;19.30;73.80;;;;;;5067650;28;20081;-73